Greenville Spartanburg International Airport Greenville US
ICAO: KGSP
IATA: GSP
Category: Large
Scheduled Services: Yes

Elevation: 964 ft
TransAlt. 18000 ft.

Airport Communications:
GREER APP/DEP:120.6
ATIS:134.25
CTAF:120.1
GREER GND:121.9
GREER TWR:120.1
UNICOM:122.95

KGSP Zoom In..

Runways:

(A) RW 04 length 11001 ft width 150 ft
ILS 109.30 / hdg 38

(B) RW 22 length 11001 ft width 150 ft
ILS 110.70 / hdg 218

Location; KGSP
Day. 21 / Time. 23.53 Zulu
* Altimeter: 30.29
* Temperature: 17° c. 62.6°f.
* Wind from: 000° Speed 00 kn.
Dewpoint: 03° c.
Visibility: 10 Statute Miles.
Clouds: Clear (automated report).

KGSP 212353Z 00000KT 10SM CLR 17/03 A3029 RMK AO2 SLP252 T01720028 10206 20172 58003


Wind - Calm.

  YouTube Music Video
 
jpsmedia.com for Web Design  worldairports.se 2018   terms of use